AirNav   Bose ProFlight Series 2 Headset
 
 430 users online  

4NJ4 PSE&G Trenton Distribution Helistop
Lawrenceville, New Jersey, USA

GOING TO LAWRENCEVILLE?


FAA INFORMATION EFFECTIVE 26 MARCH 2020

Location

FAA Identifier: 4NJ4
Lat/Long: 40-17-15.3890N 074-40-31.5700W
40-17.256483N 074-40.526167W
40.2876081,-74.6754361
(estimated)
Elevation: 85 ft. / 26 m (estimated)
Variation: 12W (1990)
Time zone: UTC -4 (UTC -5 during Standard Time)
Zip code: 08648

Heliport Operations

Heliport use: Private use. Permission required prior to landing
Activation date: 10/1991
Control tower: no
ARTCC: NEW YORK CENTER
FSS: MILLVILLE FLIGHT SERVICE STATION
Attendance: IREG
Wind indicator: lighted
Segmented circle: no

Heliport Communications

WX ASOS at TTN (6 nm W): 126.775 (609-538-8690)
WX ASOS at PNE (20 nm SW): 121.15 (215-677-0146)

Nearby radio navigation aids

VOR radial/distance  VOR name  Freq  Var
RBVr312/9.7ROBBINSVILLE VORTAC113.8010W
ARDr089/10.8YARDLEY VOR/DME108.2010W
GXUr360/17.1MC GUIRE VORTAC110.6012W
SBJr180/18.0SOLBERG VOR/DME112.9010W
COLr278/23.6COLTS NECK VOR/DME115.4011W
CYNr348/30.4COYLE VORTAC113.4010W
BWZr179/31.4BROADWAY VOR/DME114.2011W

 
NDB name  Hdg/Dist  Freq  Var  ID
LAKEHURST324/21.339611WNEL -. . .-..
CHATHAM215/29.425413WCAT -.-. .- -
AMBLER083/29.627512WING .. -. --.

Heliport Services

Runway Information

Helipad H1

Dimensions: 85 x 85 ft. / 26 x 26 m
Surface: asphalt
Traffic pattern: leftleft

Heliport Ownership and Management from official FAA records

Ownership: Publicly-owned
Owner: PUBLIC SVC ELECTRIC & GAS CO.
4000 HADLEY ROAD MC 429
SOUTH PLAINFIELD, NJ 07080
Phone 732-489-5653
Manager: MICHAEL J. TODD
4000 HADLEY ROAD MC 429
SOUTH PLAINFIELD, NJ 07080
Phone 732-489-5653

Additional Remarks

FOR CD CTC PHILADELPHIA APCH AT 800-354-9884.

Instrument Procedures

There are no published instrument procedures at 4NJ4.

Some nearby airports with instrument procedures:

N87 - Trenton-Robbinsville Airport (6 nm SE)
KTTN - Trenton Mercer Airport (6 nm W)
39N - Princeton Airport (7 nm N)
47N - Central Jersey Regional Airport (15 nm N)
3N6 - Old Bridge Airport (15 nm E)
KWRI - McGuire Field (Joint Base Mc Guire Dix Lakehurst) Airport (17 nm S)
N51 - Solberg-Hunterdon Airport (18 nm N)
KPNE - Northeast Philadelphia Airport (20 nm SW)
 
Loc | Ops | Rwys | IFR | FBO | Links
Com | Nav | Svcs | Stats | Notes
Area around 4NJ4 (PSE&G Trenton Distribution Helistop)
 
Road maps at: MapQuest Bing Google
 
Aerial photo
No photo
 
Sectional chart

 
Airport distance calculator
Flying to PSE&G Trenton Distribution Helistop? Find the distance to fly.

From to 4NJ4

Sunrise and sunset
Times for 29-Mar-2020
 Local
(UTC-4)
 Zulu
(UTC)
Morning civil twilight06:1910:19
Sunrise06:4710:47
Sunset19:2023:20
Evening civil twilight19:4723:47

Current date and time
Zulu (UTC)  29-Mar-2020 05:04:58
Local (UTC-4)  29-Mar-2020 01:04:58
 
METAR
KTTN 
6nm W 
ASOS 133.70 609-538-8690
290453Z AUTO 03007KT 2SM BR OVC003 08/08 A2998 RMK AO2 SLP148 T00830078 401110067
KWRI 
17nm S 
290456Z AUTO 03009KT 10SM OVC003 09/09 A2997 RMK AO2 CIG 002 RWY18 SLP149 T00900088 401000066 $
KSMQ 
20nm N 
ASOS 120.60 908-722-2139
290453Z AUTO 03005KT 4SM BR OVC008 08/07 A3000 RMK AO2 RAE0355 SLP160 P0000 T00830067 401060039
KPNE 
20nm SW 
290454Z AUTO 01008KT 2 1/2SM BR OVC003 09/08 A3000 RMK AO2 SLP160 T00940083 401220094
TAF
KTTN 
6nm W 
290036Z 2901/2924 07008KT 6SM -RA BR OVC005 FM290300 06005KT 2SM -DZ BR OVC004 FM290500 08009KT 3/4SM -DZ BR OVC002 FM292100 12004KT 2SM BR VCSH OVC010
KWRI 
17nm S 
290200Z 2902/3008 06012KT 8000 -SHRA OVC004 QNH2977INS BECMG 2919/2920 24012KT 9000 -SHRA OVC008 QNH2978INS TEMPO 2920/2923 24015G25KT 4800 TSRA OVC020CB BECMG 3004/3006 29008KT 9999 NSW BKN020 QNH2987INS TX14/2918Z TN08/2909Z/
KPNE 
20nm SW 
282210Z 2822/2918 09010KT 4SM -DZ BR OVC005 TEMPO 2822/2901 1SM -SHRA BR OVC003 FM290100 07005KT 1SM -DZ BR OVC002 FM291200 08005KT 4SM BR OVC008
NOTAMs
Click for the latest NOTAMs
NOTAMs are issued by the DoD/FAA and will open in a separate window not controlled by AirNav.

 

 
 

Would you like to see your business listed on this page?

 If your business provides an interesting product or service to pilots, flight crews, aircraft, or users of the PSE&G Trenton Distribution Helistop, you should consider listing it here.  To start the listing process, click on the button below
 
Add a business
 

Other Pages about PSE&G Trenton Distribution Helistop

Update a link
 
Copyright © AirNav, LLC. All rights reserved. Privacy Policy  Contact